sensor_id;sensor_type;location;lat;lon;timestamp;P1;durP1;ratioP1;P2;durP2;ratioP2
71475;SDS011;59286;59.274;17.974;2024-01-15T00:02:02;3.45;;;1.05;;
71475;SDS011;59286;59.274;17.974;2024-01-15T00:04:28;2.35;;;0.90;;
71475;SDS011;59286;59.274;17.974;2024-01-15T00:06:53;1.88;;;1.20;;
71475;SDS011;59286;59.274;17.974;2024-01-15T00:09:19;2.47;;;1.08;;
71475;SDS011;59286;59.274;17.974;2024-01-15T00:11:44;1.77;;;0.98;;
71475;SDS011;59286;59.274;17.974;2024-01-15T00:14:11;5.50;;;1.45;;
71475;SDS011;59286;59.274;17.974;2024-01-15T00:16:37;2.88;;;1.10;;
71475;SDS011;59286;59.274;17.974;2024-01-15T00:19:02;2.95;;;1.30;;
71475;SDS011;59286;59.274;17.974;2024-01-15T00:21:27;1.00;;;0.90;;
71475;SDS011;59286;59.274;17.974;2024-01-15T00:23:53;4.53;;;1.20;;
71475;SDS011;59286;59.274;17.974;2024-01-15T00:26:18;2.63;;;1.20;;
71475;SDS011;59286;59.274;17.974;2024-01-15T00:28:43;1.27;;;0.75;;
71475;SDS011;59286;59.274;17.974;2024-01-15T00:31:09;2.67;;;1.20;;
71475;SDS011;59286;59.274;17.974;2024-01-15T00:33:34;2.97;;;1.10;;
71475;SDS011;59286;59.274;17.974;2024-01-15T00:36:00;4.57;;;1.05;;
71475;SDS011;59286;59.274;17.974;2024-01-15T00:38:25;1.83;;;0.93;;
71475;SDS011;59286;59.274;17.974;2024-01-15T00:40:51;6.75;;;1.10;;
71475;SDS011;59286;59.274;17.974;2024-01-15T00:43:16;1.38;;;1.17;;
71475;SDS011;59286;59.274;17.974;2024-01-15T00:45:44;1.33;;;0.90;;
71475;SDS011;59286;59.274;17.974;2024-01-15T00:48:09;1.85;;;1.08;;
71475;SDS011;59286;59.274;17.974;2024-01-15T00:50:34;3.72;;;1.25;;
71475;SDS011;59286;59.274;17.974;2024-01-15T00:52:59;2.10;;;0.90;;
71475;SDS011;59286;59.274;17.974;2024-01-15T00:55:25;2.90;;;1.08;;
71475;SDS011;59286;59.274;17.974;2024-01-15T00:57:51;1.67;;;0.80;;
71475;SDS011;59286;59.274;17.974;2024-01-15T01:00:16;2.85;;;1.10;;
71475;SDS011;59286;59.274;17.974;2024-01-15T01:02:41;2.70;;;1.20;;
71475;SDS011;59286;59.274;17.974;2024-01-15T01:05:07;4.15;;;1.20;;
71475;SDS011;59286;59.274;17.974;2024-01-15T01:07:32;3.55;;;1.10;;
71475;SDS011;59286;59.274;17.974;2024-01-15T01:09:57;6.15;;;1.30;;
71475;SDS011;59286;59.274;17.974;2024-01-15T01:12:23;1.65;;;0.90;;
71475;SDS011;59286;59.274;17.974;2024-01-15T01:14:48;2.38;;;1.00;;
71475;SDS011;59286;59.274;17.974;2024-01-15T01:17:13;2.70;;;0.98;;
71475;SDS011;59286;59.274;17.974;2024-01-15T01:19:39;1.95;;;0.93;;
71475;SDS011;59286;59.274;17.974;2024-01-15T01:22:04;4.30;;;1.20;;
71475;SDS011;59286;59.274;17.974;2024-01-15T01:24:30;2.38;;;0.90;;
71475;SDS011;59286;59.274;17.974;2024-01-15T01:26:55;2.35;;;1.00;;
71475;SDS011;59286;59.274;17.974;2024-01-15T01:29:20;3.63;;;1.30;;
71475;SDS011;59286;59.274;17.974;2024-01-15T01:31:46;5.57;;;1.10;;
71475;SDS011;59286;59.274;17.974;2024-01-15T01:34:13;5.03;;;1.00;;
71475;SDS011;59286;59.274;17.974;2024-01-15T01:36:40;3.42;;;1.10;;
71475;SDS011;59286;59.274;17.974;2024-01-15T01:39:05;1.55;;;1.10;;
71475;SDS011;59286;59.274;17.974;2024-01-15T01:41:30;5.70;;;1.20;;
71475;SDS011;59286;59.274;17.974;2024-01-15T01:43:56;3.47;;;1.23;;
71475;SDS011;59286;59.274;17.974;2024-01-15T01:46:22;2.90;;;1.10;;
71475;SDS011;59286;59.274;17.974;2024-01-15T01:48:48;2.03;;;1.00;;
71475;SDS011;59286;59.274;17.974;2024-01-15T01:51:13;2.97;;;1.08;;
71475;SDS011;59286;59.274;17.974;2024-01-15T01:53:39;3.97;;;1.20;;
71475;SDS011;59286;59.274;17.974;2024-01-15T01:56:05;2.53;;;1.00;;
71475;SDS011;59286;59.274;17.974;2024-01-15T01:58:31;1.52;;;0.95;;
71475;SDS011;59286;59.274;17.974;2024-01-15T02:00:57;4.45;;;1.38;;
71475;SDS011;59286;59.274;17.974;2024-01-15T02:03:23;1.05;;;0.93;;
71475;SDS011;59286;59.274;17.974;2024-01-15T02:05:49;1.95;;;1.10;;
71475;SDS011;59286;59.274;17.974;2024-01-15T02:08:15;2.30;;;1.02;;
71475;SDS011;59286;59.274;17.974;2024-01-15T02:10:41;3.55;;;1.15;;
71475;SDS011;59286;59.274;17.974;2024-01-15T02:13:06;1.30;;;0.90;;
71475;SDS011;59286;59.274;17.974;2024-01-15T02:15:31;1.42;;;0.90;;
71475;SDS011;59286;59.274;17.974;2024-01-15T02:17:57;1.70;;;0.90;;
71475;SDS011;59286;59.274;17.974;2024-01-15T02:20:23;4.68;;;1.02;;
71475;SDS011;59286;59.274;17.974;2024-01-15T02:22:49;3.08;;;1.08;;
71475;SDS011;59286;59.274;17.974;2024-01-15T02:25:14;2.20;;;1.00;;
71475;SDS011;59286;59.274;17.974;2024-01-15T02:27:40;1.13;;;0.93;;
71475;SDS011;59286;59.274;17.974;2024-01-15T02:30:06;3.13;;;1.00;;
71475;SDS011;59286;59.274;17.974;2024-01-15T02:32:34;4.30;;;1.02;;
71475;SDS011;59286;59.274;17.974;2024-01-15T02:34:59;4.75;;;1.45;;
71475;SDS011;59286;59.274;17.974;2024-01-15T02:37:25;4.22;;;1.45;;
71475;SDS011;59286;59.274;17.974;2024-01-15T02:39:50;4.90;;;1.20;;
71475;SDS011;59286;59.274;17.974;2024-01-15T02:42:15;1.75;;;1.15;;
71475;SDS011;59286;59.274;17.974;2024-01-15T02:44:41;1.35;;;1.00;;
71475;SDS011;59286;59.274;17.974;2024-01-15T02:47:06;1.65;;;0.95;;
71475;SDS011;59286;59.274;17.974;2024-01-15T02:49:31;2.10;;;1.05;;
71475;SDS011;59286;59.274;17.974;2024-01-15T02:51:57;1.70;;;1.00;;
71475;SDS011;59286;59.274;17.974;2024-01-15T02:54:22;1.13;;;0.95;;
71475;SDS011;59286;59.274;17.974;2024-01-15T02:56:48;2.38;;;1.00;;
71475;SDS011;59286;59.274;17.974;2024-01-15T02:59:13;1.52;;;1.10;;
71475;SDS011;59286;59.274;17.974;2024-01-15T03:01:38;2.08;;;0.90;;
71475;SDS011;59286;59.274;17.974;2024-01-15T03:04:04;1.85;;;1.10;;
71475;SDS011;59286;59.274;17.974;2024-01-15T03:06:29;5.60;;;1.45;;
71475;SDS011;59286;59.274;17.974;2024-01-15T03:08:54;2.70;;;1.20;;
71475;SDS011;59286;59.274;17.974;2024-01-15T03:11:20;1.33;;;0.98;;
71475;SDS011;59286;59.274;17.974;2024-01-15T03:13:45;1.45;;;1.00;;
71475;SDS011;59286;59.274;17.974;2024-01-15T03:16:10;1.15;;;0.93;;
71475;SDS011;59286;59.274;17.974;2024-01-15T03:18:35;3.45;;;1.20;;
71475;SDS011;59286;59.274;17.974;2024-01-15T03:21:01;3.83;;;1.00;;
71475;SDS011;59286;59.274;17.974;2024-01-15T03:23:26;3.25;;;1.20;;
71475;SDS011;59286;59.274;17.974;2024-01-15T03:25:51;5.75;;;1.20;;
71475;SDS011;59286;59.274;17.974;2024-01-15T03:28:17;1.17;;;1.05;;
71475;SDS011;59286;59.274;17.974;2024-01-15T03:30:43;3.10;;;0.90;;
71475;SDS011;59286;59.274;17.974;2024-01-15T03:33:09;3.95;;;1.10;;
71475;SDS011;59286;59.274;17.974;2024-01-15T03:35:34;1.38;;;1.08;;
71475;SDS011;59286;59.274;17.974;2024-01-15T03:37:59;6.18;;;1.52;;
71475;SDS011;59286;59.274;17.974;2024-01-15T03:40:25;2.58;;;1.17;;
71475;SDS011;59286;59.274;17.974;2024-01-15T03:42:50;1.52;;;1.27;;
71475;SDS011;59286;59.274;17.974;2024-01-15T03:45:16;2.50;;;1.20;;
71475;SDS011;59286;59.274;17.974;2024-01-15T03:47:41;1.50;;;0.98;;
71475;SDS011;59286;59.274;17.974;2024-01-15T03:50:07;2.35;;;1.25;;
71475;SDS011;59286;59.274;17.974;2024-01-15T03:52:32;4.30;;;1.20;;
71475;SDS011;59286;59.274;17.974;2024-01-15T03:54:58;1.58;;;1.10;;
71475;SDS011;59286;59.274;17.974;2024-01-15T03:57:23;8.13;;;1.73;;
71475;SDS011;59286;59.274;17.974;2024-01-15T03:59:48;1.30;;;1.02;;
71475;SDS011;59286;59.274;17.974;2024-01-15T04:02:14;2.33;;;1.33;;
71475;SDS011;59286;59.274;17.974;2024-01-15T04:04:42;1.45;;;1.20;;
71475;SDS011;59286;59.274;17.974;2024-01-15T04:07:08;3.92;;;1.25;;
71475;SDS011;59286;59.274;17.974;2024-01-15T04:09:34;3.72;;;1.35;;
71475;SDS011;59286;59.274;17.974;2024-01-15T04:12:00;3.03;;;1.17;;
71475;SDS011;59286;59.274;17.974;2024-01-15T04:14:25;8.52;;;1.40;;
71475;SDS011;59286;59.274;17.974;2024-01-15T04:16:50;2.20;;;1.17;;
71475;SDS011;59286;59.274;17.974;2024-01-15T04:19:16;2.08;;;1.20;;
71475;SDS011;59286;59.274;17.974;2024-01-15T04:21:41;2.17;;;1.15;;
71475;SDS011;59286;59.274;17.974;2024-01-15T04:24:06;3.95;;;1.73;;
71475;SDS011;59286;59.274;17.974;2024-01-15T04:26:31;3.67;;;1.05;;
71475;SDS011;59286;59.274;17.974;2024-01-15T04:28:57;1.88;;;1.10;;
71475;SDS011;59286;59.274;17.974;2024-01-15T04:31:24;3.67;;;1.40;;
71475;SDS011;59286;59.274;17.974;2024-01-15T04:33:49;1.17;;;1.10;;
71475;SDS011;59286;59.274;17.974;2024-01-15T04:36:15;2.70;;;1.50;;
71475;SDS011;59286;59.274;17.974;2024-01-15T04:38:40;7.28;;;1.42;;
71475;SDS011;59286;59.274;17.974;2024-01-15T04:41:06;1.38;;;1.25;;
71475;SDS011;59286;59.274;17.974;2024-01-15T04:43:34;1.88;;;1.67;;
71475;SDS011;59286;59.274;17.974;2024-01-15T04:45:59;3.58;;;1.50;;
71475;SDS011;59286;59.274;17.974;2024-01-15T04:48:25;1.80;;;1.15;;
71475;SDS011;59286;59.274;17.974;2024-01-15T04:50:50;2.35;;;1.27;;
71475;SDS011;59286;59.274;17.974;2024-01-15T04:53:16;3.00;;;1.30;;
71475;SDS011;59286;59.274;17.974;2024-01-15T04:55:41;2.55;;;1.40;;
71475;SDS011;59286;59.274;17.974;2024-01-15T04:58:06;2.13;;;1.60;;
71475;SDS011;59286;59.274;17.974;2024-01-15T05:00:31;2.00;;;1.40;;
71475;SDS011;59286;59.274;17.974;2024-01-15T05:02:57;2.90;;;1.38;;
71475;SDS011;59286;59.274;17.974;2024-01-15T05:05:22;3.80;;;1.60;;
71475;SDS011;59286;59.274;17.974;2024-01-15T05:07:47;2.85;;;1.52;;
71475;SDS011;59286;59.274;17.974;2024-01-15T05:10:13;1.90;;;1.77;;
71475;SDS011;59286;59.274;17.974;2024-01-15T05:12:38;3.22;;;1.50;;
71475;SDS011;59286;59.274;17.974;2024-01-15T05:15:03;2.15;;;1.67;;
71475;SDS011;59286;59.274;17.974;2024-01-15T05:17:29;2.65;;;1.63;;
71475;SDS011;59286;59.274;17.974;2024-01-15T05:19:54;3.25;;;1.50;;
71475;SDS011;59286;59.274;17.974;2024-01-15T05:22:20;4.47;;;1.50;;
71475;SDS011;59286;59.274;17.974;2024-01-15T05:24:46;1.85;;;1.55;;
71475;SDS011;59286;59.274;17.974;2024-01-15T05:27:11;2.30;;;1.75;;
71475;SDS011;59286;59.274;17.974;2024-01-15T05:29:37;1.92;;;1.48;;
71475;SDS011;59286;59.274;17.974;2024-01-15T05:32:02;2.40;;;1.63;;
71475;SDS011;59286;59.274;17.974;2024-01-15T05:34:27;3.67;;;1.98;;
71475;SDS011;59286;59.274;17.974;2024-01-15T05:36:53;2.97;;;1.67;;
71475;SDS011;59286;59.274;17.974;2024-01-15T05:39:18;2.80;;;2.03;;
71475;SDS011;59286;59.274;17.974;2024-01-15T05:41:43;3.80;;;2.00;;
71475;SDS011;59286;59.274;17.974;2024-01-15T05:44:09;2.00;;;1.60;;
71475;SDS011;59286;59.274;17.974;2024-01-15T05:46:35;1.85;;;1.75;;
71475;SDS011;59286;59.274;17.974;2024-01-15T05:49:00;2.30;;;1.77;;
71475;SDS011;59286;59.274;17.974;2024-01-15T05:51:25;2.35;;;2.00;;
71475;SDS011;59286;59.274;17.974;2024-01-15T05:53:50;4.65;;;1.83;;
71475;SDS011;59286;59.274;17.974;2024-01-15T05:56:16;4.25;;;1.80;;
71475;SDS011;59286;59.274;17.974;2024-01-15T05:58:41;2.08;;;1.85;;
71475;SDS011;59286;59.274;17.974;2024-01-15T06:01:06;2.17;;;1.65;;
71475;SDS011;59286;59.274;17.974;2024-01-15T06:03:32;3.83;;;2.10;;
71475;SDS011;59286;59.274;17.974;2024-01-15T06:05:57;4.13;;;1.92;;
71475;SDS011;59286;59.274;17.974;2024-01-15T06:08:22;2.88;;;1.98;;
71475;SDS011;59286;59.274;17.974;2024-01-15T06:10:48;2.30;;;1.73;;
71475;SDS011;59286;59.274;17.974;2024-01-15T06:13:13;2.25;;;2.00;;
71475;SDS011;59286;59.274;17.974;2024-01-15T06:15:38;4.32;;;2.00;;
71475;SDS011;59286;59.274;17.974;2024-01-15T06:18:04;2.58;;;1.67;;
71475;SDS011;59286;59.274;17.974;2024-01-15T06:20:29;5.07;;;1.77;;
71475;SDS011;59286;59.274;17.974;2024-01-15T06:22:55;2.55;;;1.45;;
71475;SDS011;59286;59.274;17.974;2024-01-15T06:25:20;2.78;;;1.80;;
71475;SDS011;59286;59.274;17.974;2024-01-15T06:27:45;2.45;;;1.60;;
71475;SDS011;59286;59.274;17.974;2024-01-15T06:30:11;3.33;;;2.30;;
71475;SDS011;59286;59.274;17.974;2024-01-15T06:32:37;4.70;;;1.95;;
71475;SDS011;59286;59.274;17.974;2024-01-15T06:35:02;6.90;;;1.77;;
71475;SDS011;59286;59.274;17.974;2024-01-15T06:37:27;4.68;;;2.38;;
71475;SDS011;59286;59.274;17.974;2024-01-15T06:39:53;4.75;;;2.25;;
71475;SDS011;59286;59.274;17.974;2024-01-15T06:42:18;4.65;;;2.40;;
71475;SDS011;59286;59.274;17.974;2024-01-15T06:44:43;4.15;;;2.33;;
71475;SDS011;59286;59.274;17.974;2024-01-15T06:47:09;3.45;;;2.50;;
71475;SDS011;59286;59.274;17.974;2024-01-15T06:49:34;2.63;;;2.42;;
71475;SDS011;59286;59.274;17.974;2024-01-15T06:51:59;2.42;;;2.20;;
71475;SDS011;59286;59.274;17.974;2024-01-15T06:54:25;7.55;;;2.58;;
71475;SDS011;59286;59.274;17.974;2024-01-15T06:56:51;5.45;;;2.90;;
71475;SDS011;59286;59.274;17.974;2024-01-15T06:59:17;4.65;;;2.58;;
71475;SDS011;59286;59.274;17.974;2024-01-15T07:01:42;4.45;;;3.00;;
71475;SDS011;59286;59.274;17.974;2024-01-15T07:04:08;3.10;;;2.80;;
71475;SDS011;59286;59.274;17.974;2024-01-15T07:06:33;4.72;;;3.13;;
71475;SDS011;59286;59.274;17.974;2024-01-15T07:08:58;3.25;;;2.75;;
71475;SDS011;59286;59.274;17.974;2024-01-15T07:11:23;4.35;;;2.97;;
71475;SDS011;59286;59.274;17.974;2024-01-15T07:13:49;2.83;;;2.53;;
71475;SDS011;59286;59.274;17.974;2024-01-15T07:16:14;4.85;;;2.75;;
71475;SDS011;59286;59.274;17.974;2024-01-15T07:18:40;7.03;;;2.95;;
71475;SDS011;59286;59.274;17.974;2024-01-15T07:21:05;3.60;;;2.70;;
71475;SDS011;59286;59.274;17.974;2024-01-15T07:23:31;3.80;;;2.92;;
71475;SDS011;59286;59.274;17.974;2024-01-15T07:25:57;3.65;;;2.40;;
71475;SDS011;59286;59.274;17.974;2024-01-15T07:28:22;3.97;;;2.60;;
71475;SDS011;59286;59.274;17.974;2024-01-15T07:30:48;2.45;;;2.25;;
71475;SDS011;59286;59.274;17.974;2024-01-15T07:33:13;2.95;;;2.10;;
71475;SDS011;59286;59.274;17.974;2024-01-15T07:35:38;4.88;;;2.17;;
71475;SDS011;59286;59.274;17.974;2024-01-15T07:38:04;2.28;;;2.08;;
71475;SDS011;59286;59.274;17.974;2024-01-15T07:40:29;3.85;;;2.15;;
71475;SDS011;59286;59.274;17.974;2024-01-15T07:42:54;2.95;;;1.95;;
71475;SDS011;59286;59.274;17.974;2024-01-15T07:45:20;3.70;;;1.90;;
71475;SDS011;59286;59.274;17.974;2024-01-15T07:47:45;3.60;;;1.83;;
71475;SDS011;59286;59.274;17.974;2024-01-15T07:50:11;4.38;;;1.65;;
71475;SDS011;59286;59.274;17.974;2024-01-15T07:52:36;2.20;;;1.50;;
71475;SDS011;59286;59.274;17.974;2024-01-15T07:55:02;2.15;;;1.55;;
71475;SDS011;59286;59.274;17.974;2024-01-15T07:57:31;4.25;;;1.50;;
71475;SDS011;59286;59.274;17.974;2024-01-15T07:59:56;3.40;;;1.48;;
71475;SDS011;59286;59.274;17.974;2024-01-15T08:02:22;2.30;;;1.65;;
71475;SDS011;59286;59.274;17.974;2024-01-15T08:04:47;3.42;;;1.90;;
71475;SDS011;59286;59.274;17.974;2024-01-15T08:07:12;3.58;;;1.67;;
71475;SDS011;59286;59.274;17.974;2024-01-15T08:09:38;2.08;;;1.55;;
71475;SDS011;59286;59.274;17.974;2024-01-15T08:12:03;3.47;;;1.33;;
71475;SDS011;59286;59.274;17.974;2024-01-15T08:14:31;1.98;;;1.35;;
71475;SDS011;59286;59.274;17.974;2024-01-15T08:16:56;2.53;;;1.10;;
71475;SDS011;59286;59.274;17.974;2024-01-15T08:19:21;2.33;;;1.10;;
71475;SDS011;59286;59.274;17.974;2024-01-15T08:21:47;2.75;;;1.20;;
71475;SDS011;59286;59.274;17.974;2024-01-15T08:24:12;4.50;;;1.17;;
71475;SDS011;59286;59.274;17.974;2024-01-15T08:26:37;2.97;;;1.30;;
71475;SDS011;59286;59.274;17.974;2024-01-15T08:29:03;3.33;;;1.42;;
71475;SDS011;59286;59.274;17.974;2024-01-15T08:31:28;1.33;;;1.00;;
71475;SDS011;59286;59.274;17.974;2024-01-15T08:33:53;3.70;;;1.00;;
71475;SDS011;59286;59.274;17.974;2024-01-15T08:36:20;1.55;;;1.10;;
71475;SDS011;59286;59.274;17.974;2024-01-15T08:38:46;1.65;;;0.93;;
71475;SDS011;59286;59.274;17.974;2024-01-15T08:41:11;2.67;;;0.90;;
71475;SDS011;59286;59.274;17.974;2024-01-15T08:43:37;4.43;;;1.20;;
71475;SDS011;59286;59.274;17.974;2024-01-15T08:46:02;5.97;;;1.48;;
71475;SDS011;59286;59.274;17.974;2024-01-15T08:48:28;3.15;;;1.05;;
71475;SDS011;59286;59.274;17.974;2024-01-15T08:50:54;2.75;;;1.80;;
71475;SDS011;59286;59.274;17.974;2024-01-15T08:53:20;3.45;;;1.10;;
71475;SDS011;59286;59.274;17.974;2024-01-15T08:55:45;4.47;;;1.52;;
71475;SDS011;59286;59.274;17.974;2024-01-15T08:58:11;3.05;;;1.00;;
71475;SDS011;59286;59.274;17.974;2024-01-15T09:00:36;1.27;;;1.10;;
71475;SDS011;59286;59.274;17.974;2024-01-15T09:03:02;3.38;;;1.33;;
71475;SDS011;59286;59.274;17.974;2024-01-15T09:05:27;1.25;;;0.90;;
71475;SDS011;59286;59.274;17.974;2024-01-15T09:07:53;3.30;;;1.00;;
71475;SDS011;59286;59.274;17.974;2024-01-15T09:10:19;2.08;;;1.17;;
71475;SDS011;59286;59.274;17.974;2024-01-15T09:12:45;2.03;;;1.10;;
71475;SDS011;59286;59.274;17.974;2024-01-15T09:15:10;3.40;;;1.25;;
71475;SDS011;59286;59.274;17.974;2024-01-15T09:17:36;5.13;;;1.17;;
71475;SDS011;59286;59.274;17.974;2024-01-15T09:20:01;2.03;;;1.10;;
71475;SDS011;59286;59.274;17.974;2024-01-15T09:22:27;2.55;;;1.25;;
71475;SDS011;59286;59.274;17.974;2024-01-15T09:24:52;1.25;;;1.00;;
71475;SDS011;59286;59.274;17.974;2024-01-15T09:27:18;1.00;;;0.90;;
71475;SDS011;59286;59.274;17.974;2024-01-15T09:29:43;3.53;;;1.35;;
71475;SDS011;59286;59.274;17.974;2024-01-15T09:32:10;1.75;;;1.05;;
71475;SDS011;59286;59.274;17.974;2024-01-15T09:34:36;0.95;;;0.95;;
71475;SDS011;59286;59.274;17.974;2024-01-15T09:37:01;2.05;;;0.90;;
71475;SDS011;59286;59.274;17.974;2024-01-15T09:39:28;2.85;;;1.42;;
71475;SDS011;59286;59.274;17.974;2024-01-15T09:41:53;1.42;;;1.10;;
71475;SDS011;59286;59.274;17.974;2024-01-15T09:44:19;3.65;;;1.35;;
71475;SDS011;59286;59.274;17.974;2024-01-15T09:46:46;2.47;;;1.13;;
71475;SDS011;59286;59.274;17.974;2024-01-15T09:49:14;3.83;;;1.30;;
71475;SDS011;59286;59.274;17.974;2024-01-15T09:51:39;6.22;;;1.23;;
71475;SDS011;59286;59.274;17.974;2024-01-15T09:54:07;5.32;;;1.20;;
71475;SDS011;59286;59.274;17.974;2024-01-15T09:56:33;2.58;;;1.10;;
71475;SDS011;59286;59.274;17.974;2024-01-15T09:58:59;3.58;;;1.08;;
71475;SDS011;59286;59.274;17.974;2024-01-15T10:01:25;5.15;;;1.10;;
71475;SDS011;59286;59.274;17.974;2024-01-15T10:03:51;5.65;;;1.75;;
71475;SDS011;59286;59.274;17.974;2024-01-15T10:06:17;4.25;;;1.10;;
71475;SDS011;59286;59.274;17.974;2024-01-15T10:08:43;2.20;;;1.02;;
71475;SDS011;59286;59.274;17.974;2024-01-15T10:11:16;4.07;;;0.90;;
71475;SDS011;59286;59.274;17.974;2024-01-15T10:13:43;4.47;;;1.40;;
71475;SDS011;59286;59.274;17.974;2024-01-15T10:16:09;2.95;;;1.17;;
71475;SDS011;59286;59.274;17.974;2024-01-15T10:18:35;1.65;;;1.02;;
71475;SDS011;59286;59.274;17.974;2024-01-15T10:21:02;1.63;;;0.90;;
71475;SDS011;59286;59.274;17.974;2024-01-15T10:23:28;5.30;;;1.42;;
71475;SDS011;59286;59.274;17.974;2024-01-15T10:25:53;5.82;;;1.33;;
71475;SDS011;59286;59.274;17.974;2024-01-15T10:28:19;3.25;;;0.95;;
71475;SDS011;59286;59.274;17.974;2024-01-15T10:30:44;2.65;;;1.20;;
71475;SDS011;59286;59.274;17.974;2024-01-15T10:33:10;4.13;;;1.40;;
71475;SDS011;59286;59.274;17.974;2024-01-15T10:35:36;0.90;;;0.88;;
71475;SDS011;59286;59.274;17.974;2024-01-15T10:38:03;2.55;;;0.80;;
71475;SDS011;59286;59.274;17.974;2024-01-15T10:40:30;3.85;;;0.95;;
71475;SDS011;59286;59.274;17.974;2024-01-15T10:42:55;1.85;;;1.00;;
71475;SDS011;59286;59.274;17.974;2024-01-15T10:45:21;2.25;;;1.02;;
71475;SDS011;59286;59.274;17.974;2024-01-15T10:47:47;4.05;;;1.20;;
71475;SDS011;59286;59.274;17.974;2024-01-15T10:50:13;3.45;;;1.02;;
71475;SDS011;59286;59.274;17.974;2024-01-15T10:52:40;3.67;;;1.15;;
71475;SDS011;59286;59.274;17.974;2024-01-15T10:55:06;2.97;;;1.10;;
71475;SDS011;59286;59.274;17.974;2024-01-15T10:57:33;1.17;;;0.90;;
71475;SDS011;59286;59.274;17.974;2024-01-15T10:59:59;3.95;;;1.08;;
71475;SDS011;59286;59.274;17.974;2024-01-15T11:02:27;1.50;;;0.90;;
71475;SDS011;59286;59.274;17.974;2024-01-15T11:04:53;2.20;;;1.00;;
71475;SDS011;59286;59.274;17.974;2024-01-15T11:07:20;0.80;;;0.80;;
71475;SDS011;59286;59.274;17.974;2024-01-15T11:09:49;2.58;;;1.00;;
71475;SDS011;59286;59.274;17.974;2024-01-15T11:12:15;1.40;;;1.00;;
71475;SDS011;59286;59.274;17.974;2024-01-15T11:14:45;0.77;;;0.75;;
71475;SDS011;59286;59.274;17.974;2024-01-15T11:17:12;1.33;;;1.00;;
71475;SDS011;59286;59.274;17.974;2024-01-15T11:19:42;1.85;;;0.77;;
71475;SDS011;59286;59.274;17.974;2024-01-15T11:24:55;1.90;;;0.90;;
71475;SDS011;59286;59.274;17.974;2024-01-15T11:27:40;0.93;;;0.93;;
71475;SDS011;59286;59.274;17.974;2024-01-15T11:30:16;1.05;;;0.85;;
71475;SDS011;59286;59.274;17.974;2024-01-15T11:32:41;2.55;;;1.00;;
71475;SDS011;59286;59.274;17.974;2024-01-15T11:35:07;2.10;;;0.82;;
71475;SDS011;59286;59.274;17.974;2024-01-15T11:40:18;3.60;;;1.05;;
71475;SDS011;59286;59.274;17.974;2024-01-15T11:42:44;1.20;;;0.80;;
71475;SDS011;59286;59.274;17.974;2024-01-15T11:45:10;4.80;;;1.10;;
71475;SDS011;59286;59.274;17.974;2024-01-15T11:50:11;1.85;;;1.30;;
71475;SDS011;59286;59.274;17.974;2024-01-15T11:52:38;2.70;;;1.17;;
71475;SDS011;59286;59.274;17.974;2024-01-15T11:57:49;1.92;;;1.08;;
71475;SDS011;59286;59.274;17.974;2024-01-15T12:00:16;2.58;;;1.30;;
71475;SDS011;59286;59.274;17.974;2024-01-15T12:02:44;3.60;;;1.52;;
71475;SDS011;59286;59.274;17.974;2024-01-15T12:05:12;1.58;;;0.90;;
71475;SDS011;59286;59.274;17.974;2024-01-15T12:07:45;4.57;;;1.10;;
71475;SDS011;59286;59.274;17.974;2024-01-15T12:10:16;2.03;;;0.90;;
71475;SDS011;59286;59.274;17.974;2024-01-15T12:15:26;3.33;;;1.02;;
71475;SDS011;59286;59.274;17.974;2024-01-15T12:17:57;1.85;;;0.80;;
71475;SDS011;59286;59.274;17.974;2024-01-15T12:20:27;1.17;;;0.90;;
71475;SDS011;59286;59.274;17.974;2024-01-15T12:22:54;1.23;;;0.88;;
71475;SDS011;59286;59.274;17.974;2024-01-15T12:25:23;2.30;;;0.90;;
71475;SDS011;59286;59.274;17.974;2024-01-15T12:27:49;2.70;;;0.93;;
71475;SDS011;59286;59.274;17.974;2024-01-15T12:30:15;3.33;;;1.02;;
71475;SDS011;59286;59.274;17.974;2024-01-15T12:32:40;1.85;;;1.10;;
71475;SDS011;59286;59.274;17.974;2024-01-15T12:35:09;1.45;;;1.13;;
71475;SDS011;59286;59.274;17.974;2024-01-15T12:37:36;4.20;;;0.90;;
71475;SDS011;59286;59.274;17.974;2024-01-15T12:40:06;4.60;;;0.80;;
71475;SDS011;59286;59.274;17.974;2024-01-15T12:42:35;2.15;;;1.02;;
71475;SDS011;59286;59.274;17.974;2024-01-15T12:45:01;4.00;;;1.02;;
71475;SDS011;59286;59.274;17.974;2024-01-15T12:47:29;1.98;;;1.23;;
71475;SDS011;59286;59.274;17.974;2024-01-15T12:49:55;1.60;;;0.90;;
71475;SDS011;59286;59.274;17.974;2024-01-15T12:52:20;2.08;;;0.80;;
71475;SDS011;59286;59.274;17.974;2024-01-15T12:54:47;0.88;;;0.88;;
71475;SDS011;59286;59.274;17.974;2024-01-15T12:57:13;1.55;;;0.90;;
71475;SDS011;59286;59.274;17.974;2024-01-15T12:59:38;4.28;;;0.90;;
71475;SDS011;59286;59.274;17.974;2024-01-15T13:02:04;2.50;;;0.93;;
71475;SDS011;59286;59.274;17.974;2024-01-15T13:04:29;2.13;;;0.93;;
71475;SDS011;59286;59.274;17.974;2024-01-15T13:06:54;3.17;;;0.90;;
71475;SDS011;59286;59.274;17.974;2024-01-15T13:09:20;2.03;;;1.00;;
71475;SDS011;59286;59.274;17.974;2024-01-15T13:11:45;0.85;;;0.85;;
71475;SDS011;59286;59.274;17.974;2024-01-15T13:14:11;2.40;;;1.00;;
71475;SDS011;59286;59.274;17.974;2024-01-15T13:16:38;1.70;;;0.93;;
71475;SDS011;59286;59.274;17.974;2024-01-15T13:19:07;1.65;;;0.80;;
71475;SDS011;59286;59.274;17.974;2024-01-15T13:21:34;1.58;;;1.17;;
71475;SDS011;59286;59.274;17.974;2024-01-15T13:23:59;3.38;;;1.10;;
71475;SDS011;59286;59.274;17.974;2024-01-15T13:26:25;2.15;;;1.10;;
71475;SDS011;59286;59.274;17.974;2024-01-15T13:28:50;2.72;;;1.00;;
71475;SDS011;59286;59.274;17.974;2024-01-15T13:31:16;0.90;;;0.80;;
71475;SDS011;59286;59.274;17.974;2024-01-15T13:33:41;2.25;;;0.75;;
71475;SDS011;59286;59.274;17.974;2024-01-15T13:36:06;1.33;;;1.23;;
71475;SDS011;59286;59.274;17.974;2024-01-15T13:38:35;2.00;;;1.10;;
71475;SDS011;59286;59.274;17.974;2024-01-15T13:41:02;2.67;;;1.13;;
71475;SDS011;59286;59.274;17.974;2024-01-15T13:43:29;3.50;;;0.90;;
71475;SDS011;59286;59.274;17.974;2024-01-15T13:45:54;1.67;;;0.80;;
71475;SDS011;59286;59.274;17.974;2024-01-15T13:48:19;2.67;;;0.95;;
71475;SDS011;59286;59.274;17.974;2024-01-15T13:50:45;1.42;;;1.00;;
71475;SDS011;59286;59.274;17.974;2024-01-15T13:53:10;2.38;;;0.90;;
71475;SDS011;59286;59.274;17.974;2024-01-15T13:55:36;2.22;;;0.90;;
71475;SDS011;59286;59.274;17.974;2024-01-15T13:58:01;2.95;;;0.85;;
71475;SDS011;59286;59.274;17.974;2024-01-15T14:00:28;4.65;;;1.45;;
71475;SDS011;59286;59.274;17.974;2024-01-15T14:02:54;4.38;;;1.17;;
71475;SDS011;59286;59.274;17.974;2024-01-15T14:05:19;2.00;;;1.13;;
71475;SDS011;59286;59.274;17.974;2024-01-15T14:07:45;3.15;;;1.17;;
71475;SDS011;59286;59.274;17.974;2024-01-15T14:10:10;7.85;;;1.20;;
71475;SDS011;59286;59.274;17.974;2024-01-15T14:12:35;2.58;;;1.00;;
71475;SDS011;59286;59.274;17.974;2024-01-15T14:15:01;2.60;;;1.00;;
71475;SDS011;59286;59.274;17.974;2024-01-15T14:17:28;2.45;;;1.00;;
71475;SDS011;59286;59.274;17.974;2024-01-15T14:19:53;1.33;;;1.00;;
71475;SDS011;59286;59.274;17.974;2024-01-15T14:22:19;1.67;;;1.17;;
71475;SDS011;59286;59.274;17.974;2024-01-15T14:24:44;1.80;;;1.40;;
71475;SDS011;59286;59.274;17.974;2024-01-15T14:27:09;2.55;;;1.70;;
71475;SDS011;59286;59.274;17.974;2024-01-15T14:29:35;1.75;;;1.00;;
71475;SDS011;59286;59.274;17.974;2024-01-15T14:32:00;3.42;;;1.70;;
71475;SDS011;59286;59.274;17.974;2024-01-15T14:34:26;1.67;;;1.55;;
71475;SDS011;59286;59.274;17.974;2024-01-15T14:36:52;4.25;;;2.30;;
71475;SDS011;59286;59.274;17.974;2024-01-15T14:39:19;4.35;;;2.20;;